Cereal, Canada
Current Conditions -  °F | °C
As of 1:00 PM on Wednesday 28 Jan 2015 (Local Time) from CYKY Reporting Station
Overcast Overcast  
Wind Chill: 20°   Ceiling: 2000
Heat Index: 32°   Visibility: 15mi
Dew Point: 27°   Wind: 18mph
Humidity: 80%   Direction: 320°NW
Pressure: 30.18"   Gusts: 26mph
Location:  51.42°N, 110.8°W
Report Text: CYKY 282000Z 32016G23KT 15SM OVC020 M00/M03 A3018 RMK SC8 SLP251
Loading
Personal Weather Stations






























Interactive Weather Map New forecast layout! Learn more

10-Day Weather Forecast

Advertisements
Track Severe Weather on mobile